Stella Prima — PHEA — position and weather

sailwx.info

Track history (hours):
 
Tides and Currents Weather Stations Pressure Air Temp Water Temp Dewpoint Dewpoint Depression Visibility Wind Speed Wind Dir Waves Ship Positions

Stella Prima

Last reported at 2016-May-31 15:33 UTC. Time now 2016-May-31 16:06 UTC.
Position N 35°55' W 005°19'.

Length 100 m; beam 21 m.

Type: Cargo ship. MMSI: 246460000.

Date/timePositionNaut miles runAvg speedWind from/ knotsBaromVisibWave heightAir tempDewpointWater temp
2016-May-31 15:33N 35°55' W 005°19'1 1.3
2016-May-31 14:33N 35°55' W 005°17'20513.4
2016-May-30 23:10N 36°34' W 001°07'913.1
2016-May-30 22:27N 36°36' W 000°56'1213.4
2016-May-30 21:33N 36°38' W 000°41'1513.9
2016-May-30 20:30N 36°40' W 000°23'1414.3
2016-May-30 19:33N 36°42' W 000°06'1414.5
2016-May-30 18:33N 36°44' E 000°12'1514.3
2016-May-30 17:32N 36°46' E 000°30'22812.5
2016-May-29 23:17N 37°22' E 005°12'24411.7
2016-May-29 02:31N 37°60' E 010°17'2613.1
2016-May-29 00:31N 38°04' E 010°50'1313.8
2016-May-28 23:33N 38°06' E 011°06'1414.0
2016-May-28 22:33N 38°08' E 011°24'1814.0
2016-May-28 21:17N 38°11' E 011°46'2514.1
2016-May-28 19:32N 38°15' E 012°17'1414.4
2016-May-28 18:33N 38°16' E 012°35'1414.1
2016-May-28 17:33N 38°18' E 012°53'1414.0
2016-May-28 16:33N 38°19' E 013°11'1312.8
2016-May-28 15:34N 38°18' E 013°27'1313.3
2016-May-28 14:33N 38°19' E 013°44'1414.2
2016-May-28 13:33N 38°19' E 014°02'1414.1
2016-May-28 12:32N 38°19' E 014°21'1414.1
2016-May-28 11:32N 38°20' E 014°38'1313.4
2016-May-28 10:33N 38°20' E 014°55'1414.0
2016-May-28 09:34N 38°20' E 015°13'1414.3
2016-May-28 08:33N 38°21' E 015°31'8 8.3
2016-May-28 07:33N 38°14' E 015°38'1312.9
2016-May-28 06:33N 38°01' E 015°36'1313.0
2016-May-28 05:33N 37°53' E 015°48'33710.1
2016-May-26 20:17N 43°26' E 014°46'1114.3
2016-May-26 19:32N 43°34' E 014°37'5714.1
2016-May-26 15:30N 44°20' E 013°49'1314.2
2016-May-26 14:33N 44°31' E 013°39'1414.1
2016-May-26 13:33N 44°43' E 013°28'2014.1
2016-May-26 12:09N 44°60' E 013°13'813.2
2016-May-26 11:33N 45°06' E 013°07'1313.2
2016-May-26 10:33N 45°18' E 012°58'1413.5
2016-May-26 09:33N 45°30' E 013°06'11 0.3
2016-May-24 18:16N 45°30' E 013°21'1013.4
2016-May-24 17:31N 45°22' E 013°13'1414.5
2016-May-24 16:32N 45°08' E 013°17'  
Track history (hours):
 
Tides and Currents Weather Stations Pressure Air Temp Water Temp Dewpoint Dewpoint Depression Visibility Wind Speed Wind Dir Waves Ship Positions

Stella Prima

Last reported at 2016-May-31 15:33 UTC. Time now 2016-May-31 16:06 UTC.
Position N 35°55' W 005°19'.

Length 100 m; beam 21 m.

Type: Cargo ship. MMSI: 246460000.

Date/timePositionNaut miles runAvg speedWind from/ knotsBaromVisibWave heightAir tempDewpointWater temp
2016-May-31 15:33N 35°55' W 005°19'1 1.3
2016-May-31 14:33N 35°55' W 005°17'20513.4
2016-May-30 23:10N 36°34' W 001°07'913.1
2016-May-30 22:27N 36°36' W 000°56'1213.4
2016-May-30 21:33N 36°38' W 000°41'1513.9
2016-May-30 20:30N 36°40' W 000°23'1414.3
2016-May-30 19:33N 36°42' W 000°06'1414.5
2016-May-30 18:33N 36°44' E 000°12'1514.3
2016-May-30 17:32N 36°46' E 000°30'22812.5
2016-May-29 23:17N 37°22' E 005°12'24411.7
2016-May-29 02:31N 37°60' E 010°17'2613.1
2016-May-29 00:31N 38°04' E 010°50'1313.8
2016-May-28 23:33N 38°06' E 011°06'1414.0
2016-May-28 22:33N 38°08' E 011°24'1814.0
2016-May-28 21:17N 38°11' E 011°46'2514.1
2016-May-28 19:32N 38°15' E 012°17'1414.4
2016-May-28 18:33N 38°16' E 012°35'1414.1
2016-May-28 17:33N 38°18' E 012°53'1414.0
2016-May-28 16:33N 38°19' E 013°11'1312.8
2016-May-28 15:34N 38°18' E 013°27'1313.3
2016-May-28 14:33N 38°19' E 013°44'1414.2
2016-May-28 13:33N 38°19' E 014°02'1414.1
2016-May-28 12:32N 38°19' E 014°21'1414.1
2016-May-28 11:32N 38°20' E 014°38'1313.4
2016-May-28 10:33N 38°20' E 014°55'1414.0
2016-May-28 09:34N 38°20' E 015°13'1414.3
2016-May-28 08:33N 38°21' E 015°31'8 8.3
2016-May-28 07:33N 38°14' E 015°38'1312.9
2016-May-28 06:33N 38°01' E 015°36'1313.0
2016-May-28 05:33N 37°53' E 015°48'33710.1
2016-May-26 20:17N 43°26' E 014°46'1114.3
2016-May-26 19:32N 43°34' E 014°37'5714.1
2016-May-26 15:30N 44°20' E 013°49'1314.2
2016-May-26 14:33N 44°31' E 013°39'1414.1
2016-May-26 13:33N 44°43' E 013°28'2014.1
2016-May-26 12:09N 44°60' E 013°13'813.2
2016-May-26 11:33N 45°06' E 013°07'1313.2
2016-May-26 10:33N 45°18' E 012°58'1413.5
2016-May-26 09:33N 45°30' E 013°06'11 0.3
2016-May-24 18:16N 45°30' E 013°21'1013.4
2016-May-24 17:31N 45°22' E 013°13'1414.5
2016-May-24 16:32N 45°08' E 013°17'  

Dump ship's entire track history